sensor_id;sensor_type;location;lat;lon;timestamp;pressure;altitude;pressure_sealevel;temperature;humidity
35507;BME280;36461;52.018;21.036;2023-12-22T00:00:10;96616.20;;;4.83;95.34
35507;BME280;36461;52.018;21.036;2023-12-22T00:02:58;96612.39;;;4.79;94.77
35507;BME280;36461;52.018;21.036;2023-12-22T00:05:27;96613.29;;;4.76;94.70
35507;BME280;36461;52.018;21.036;2023-12-22T00:07:55;96620.73;;;4.73;94.20
35507;BME280;36461;52.018;21.036;2023-12-22T00:10:24;96624.61;;;4.68;94.14
35507;BME280;36461;52.018;21.036;2023-12-22T00:12:52;96629.60;;;4.71;94.44
35507;BME280;36461;52.018;21.036;2023-12-22T00:15:19;96637.60;;;4.81;94.68
35507;BME280;36461;52.018;21.036;2023-12-22T00:17:47;96649.88;;;4.90;94.47
35507;BME280;36461;52.018;21.036;2023-12-22T00:20:16;96655.89;;;4.92;94.59
35507;BME280;36461;52.018;21.036;2023-12-22T00:22:45;96655.64;;;4.93;94.62
35507;BME280;36461;52.018;21.036;2023-12-22T00:25:13;96658.69;;;4.94;94.61
35507;BME280;36461;52.018;21.036;2023-12-22T00:27:41;96668.92;;;4.94;94.70
35507;BME280;36461;52.018;21.036;2023-12-22T00:30:10;96670.24;;;4.97;94.62
35507;BME280;36461;52.018;21.036;2023-12-22T00:32:38;96679.14;;;5.00;94.49
35507;BME280;36461;52.018;21.036;2023-12-22T00:35:06;96674.98;;;4.98;93.63
35507;BME280;36461;52.018;21.036;2023-12-22T00:37:35;96686.98;;;4.91;93.38
35507;BME280;36461;52.018;21.036;2023-12-22T00:40:03;96682.48;;;4.81;93.25
35507;BME280;36461;52.018;21.036;2023-12-22T00:42:33;96687.28;;;4.71;92.93
35507;BME280;36461;52.018;21.036;2023-12-22T00:45:01;96688.96;;;4.64;93.09
35507;BME280;36461;52.018;21.036;2023-12-22T00:47:29;96697.81;;;4.57;92.82
35507;BME280;36461;52.018;21.036;2023-12-22T00:49:57;96695.66;;;4.51;92.65
35507;BME280;36461;52.018;21.036;2023-12-22T00:52:25;96695.33;;;4.45;92.87
35507;BME280;36461;52.018;21.036;2023-12-22T00:54:54;96701.39;;;4.39;92.62
35507;BME280;36461;52.018;21.036;2023-12-22T00:57:22;96693.67;;;4.34;92.85
35507;BME280;36461;52.018;21.036;2023-12-22T00:59:50;96696.74;;;4.29;92.47
35507;BME280;36461;52.018;21.036;2023-12-22T01:02:18;96697.61;;;4.24;92.54
35507;BME280;36461;52.018;21.036;2023-12-22T01:04:46;96695.80;;;4.17;92.45
35507;BME280;36461;52.018;21.036;2023-12-22T01:07:15;96693.68;;;4.11;91.78
35507;BME280;36461;52.018;21.036;2023-12-22T01:09:43;96696.38;;;4.08;91.81
35507;BME280;36461;52.018;21.036;2023-12-22T01:12:11;96694.73;;;4.05;91.30
35507;BME280;36461;52.018;21.036;2023-12-22T01:14:39;96693.46;;;4.01;91.28
35507;BME280;36461;52.018;21.036;2023-12-22T01:17:07;96693.94;;;3.96;91.33
35507;BME280;36461;52.018;21.036;2023-12-22T01:19:35;96691.71;;;3.91;91.23
35507;BME280;36461;52.018;21.036;2023-12-22T01:22:03;96685.46;;;3.87;90.74
35507;BME280;36461;52.018;21.036;2023-12-22T01:24:31;96682.63;;;3.85;90.56
35507;BME280;36461;52.018;21.036;2023-12-22T01:26:59;96686.09;;;3.85;90.72
35507;BME280;36461;52.018;21.036;2023-12-22T01:29:27;96698.41;;;3.85;90.59
35507;BME280;36461;52.018;21.036;2023-12-22T01:31:55;96689.20;;;3.82;90.45
35507;BME280;36461;52.018;21.036;2023-12-22T01:34:23;96689.55;;;3.79;89.72
35507;BME280;36461;52.018;21.036;2023-12-22T01:36:51;96691.06;;;3.79;89.73
35507;BME280;36461;52.018;21.036;2023-12-22T01:39:19;96683.45;;;3.78;89.22
35507;BME280;36461;52.018;21.036;2023-12-22T01:41:47;96677.91;;;3.77;89.33
35507;BME280;36461;52.018;21.036;2023-12-22T01:44:15;96681.71;;;3.73;89.17
35507;BME280;36461;52.018;21.036;2023-12-22T01:46:44;96684.55;;;3.69;89.30
35507;BME280;36461;52.018;21.036;2023-12-22T01:49:12;96681.50;;;3.66;89.24
35507;BME280;36461;52.018;21.036;2023-12-22T01:51:41;96686.20;;;3.64;89.28
35507;BME280;36461;52.018;21.036;2023-12-22T01:54:10;96686.27;;;3.63;88.98
35507;BME280;36461;52.018;21.036;2023-12-22T01:56:41;96688.86;;;3.63;88.80
35507;BME280;36461;52.018;21.036;2023-12-22T01:59:11;96686.55;;;3.62;88.65
35507;BME280;36461;52.018;21.036;2023-12-22T02:01:40;96686.71;;;3.64;88.70
35507;BME280;36461;52.018;21.036;2023-12-22T02:04:08;96688.38;;;3.71;88.60
35507;BME280;36461;52.018;21.036;2023-12-22T02:06:37;96690.65;;;3.78;88.48
35507;BME280;36461;52.018;21.036;2023-12-22T02:09:05;96687.91;;;3.83;88.32
35507;BME280;36461;52.018;21.036;2023-12-22T02:11:33;96688.92;;;3.83;88.22
35507;BME280;36461;52.018;21.036;2023-12-22T02:14:01;96691.41;;;3.79;88.37
35507;BME280;36461;52.018;21.036;2023-12-22T02:16:55;96690.30;;;3.73;88.02
35507;BME280;36461;52.018;21.036;2023-12-22T02:22:07;96692.23;;;3.61;88.22
35507;BME280;36461;52.018;21.036;2023-12-22T02:24:38;96696.34;;;3.58;88.42
35507;BME280;36461;52.018;21.036;2023-12-22T02:27:19;96692.10;;;3.58;88.20
35507;BME280;36461;52.018;21.036;2023-12-22T02:30:03;96688.52;;;3.60;88.49
35507;BME280;36461;52.018;21.036;2023-12-22T02:32:37;96689.73;;;3.65;88.73
35507;BME280;36461;52.018;21.036;2023-12-22T02:35:10;96694.27;;;3.72;88.55
35507;BME280;36461;52.018;21.036;2023-12-22T02:37:39;96688.14;;;3.82;88.61
35507;BME280;36461;52.018;21.036;2023-12-22T02:40:09;96689.41;;;3.90;88.73
35507;BME280;36461;52.018;21.036;2023-12-22T02:42:38;96681.91;;;3.94;88.44
35507;BME280;36461;52.018;21.036;2023-12-22T02:45:06;96684.19;;;3.98;88.72
35507;BME280;36461;52.018;21.036;2023-12-22T02:47:40;96679.31;;;4.00;88.30
35507;BME280;36461;52.018;21.036;2023-12-22T02:50:09;96676.77;;;4.00;88.13
35507;BME280;36461;52.018;21.036;2023-12-22T02:52:37;96673.77;;;3.98;88.06
35507;BME280;36461;52.018;21.036;2023-12-22T02:55:06;96682.29;;;3.99;87.99
35507;BME280;36461;52.018;21.036;2023-12-22T02:57:35;96675.72;;;4.02;87.49
35507;BME280;36461;52.018;21.036;2023-12-22T03:00:03;96677.77;;;4.08;87.64
35507;BME280;36461;52.018;21.036;2023-12-22T03:02:31;96675.02;;;4.11;87.52
35507;BME280;36461;52.018;21.036;2023-12-22T03:04:59;96675.09;;;4.12;87.07
35507;BME280;36461;52.018;21.036;2023-12-22T03:07:27;96674.98;;;4.13;86.43
35507;BME280;36461;52.018;21.036;2023-12-22T03:09:55;96681.55;;;4.13;86.53
35507;BME280;36461;52.018;21.036;2023-12-22T03:12:23;96681.25;;;4.15;86.35
35507;BME280;36461;52.018;21.036;2023-12-22T03:14:51;96674.06;;;4.15;86.06
35507;BME280;36461;52.018;21.036;2023-12-22T03:17:19;96672.26;;;4.16;86.17
35507;BME280;36461;52.018;21.036;2023-12-22T03:19:47;96668.13;;;4.17;86.02
35507;BME280;36461;52.018;21.036;2023-12-22T03:22:15;96668.23;;;4.15;85.42
35507;BME280;36461;52.018;21.036;2023-12-22T03:24:43;96670.10;;;4.17;85.43
35507;BME280;36461;52.018;21.036;2023-12-22T03:27:12;96669.27;;;4.20;85.88
35507;BME280;36461;52.018;21.036;2023-12-22T03:29:44;96679.16;;;4.24;86.19
35507;BME280;36461;52.018;21.036;2023-12-22T03:32:12;96676.36;;;4.27;85.98
35507;BME280;36461;52.018;21.036;2023-12-22T03:34:40;96674.91;;;4.26;85.50
35507;BME280;36461;52.018;21.036;2023-12-22T03:37:09;96666.86;;;4.20;86.16
35507;BME280;36461;52.018;21.036;2023-12-22T03:39:37;96671.02;;;4.17;86.15
35507;BME280;36461;52.018;21.036;2023-12-22T03:42:05;96661.79;;;4.14;85.73
35507;BME280;36461;52.018;21.036;2023-12-22T03:44:33;96667.32;;;4.11;84.88
35507;BME280;36461;52.018;21.036;2023-12-22T03:47:01;96667.58;;;4.10;85.24
35507;BME280;36461;52.018;21.036;2023-12-22T03:49:29;96663.45;;;4.07;85.18
35507;BME280;36461;52.018;21.036;2023-12-22T03:51:57;96659.04;;;4.07;85.23
35507;BME280;36461;52.018;21.036;2023-12-22T03:54:25;96667.43;;;4.07;84.90
35507;BME280;36461;52.018;21.036;2023-12-22T03:56:53;96666.05;;;4.04;84.39
35507;BME280;36461;52.018;21.036;2023-12-22T03:59:21;96665.73;;;4.01;84.79
35507;BME280;36461;52.018;21.036;2023-12-22T04:01:52;96669.38;;;3.98;84.95
35507;BME280;36461;52.018;21.036;2023-12-22T04:04:21;96672.59;;;3.95;84.40
35507;BME280;36461;52.018;21.036;2023-12-22T04:06:51;96665.35;;;3.94;84.22
35507;BME280;36461;52.018;21.036;2023-12-22T04:09:19;96665.61;;;3.95;84.83
35507;BME280;36461;52.018;21.036;2023-12-22T04:11:47;96668.99;;;3.96;84.74
35507;BME280;36461;52.018;21.036;2023-12-22T04:14:15;96661.94;;;3.94;84.22
35507;BME280;36461;52.018;21.036;2023-12-22T04:16:44;96667.98;;;3.90;84.69
35507;BME280;36461;52.018;21.036;2023-12-22T04:19:13;96662.05;;;3.86;84.36
35507;BME280;36461;52.018;21.036;2023-12-22T04:21:41;96663.08;;;3.81;84.21
35507;BME280;36461;52.018;21.036;2023-12-22T04:24:10;96672.06;;;3.80;84.30
35507;BME280;36461;52.018;21.036;2023-12-22T04:26:38;96669.29;;;3.80;84.41
35507;BME280;36461;52.018;21.036;2023-12-22T04:29:06;96667.27;;;3.80;84.24
35507;BME280;36461;52.018;21.036;2023-12-22T04:31:34;96678.36;;;3.78;84.47
35507;BME280;36461;52.018;21.036;2023-12-22T04:34:02;96678.41;;;3.77;84.67
35507;BME280;36461;52.018;21.036;2023-12-22T04:36:30;96681.83;;;3.74;84.33
35507;BME280;36461;52.018;21.036;2023-12-22T04:38:57;96688.23;;;3.73;84.71
35507;BME280;36461;52.018;21.036;2023-12-22T04:41:25;96691.27;;;3.71;85.26
35507;BME280;36461;52.018;21.036;2023-12-22T04:43:53;96697.71;;;3.69;85.47
35507;BME280;36461;52.018;21.036;2023-12-22T04:46:22;96696.09;;;3.67;85.70
35507;BME280;36461;52.018;21.036;2023-12-22T04:48:50;96696.25;;;3.68;85.80
35507;BME280;36461;52.018;21.036;2023-12-22T04:51:18;96694.27;;;3.67;86.27
35507;BME280;36461;52.018;21.036;2023-12-22T04:53:46;96695.60;;;3.67;86.33
35507;BME280;36461;52.018;21.036;2023-12-22T04:56:14;96694.80;;;3.66;86.13
35507;BME280;36461;52.018;21.036;2023-12-22T04:58:42;96697.23;;;3.66;85.98
35507;BME280;36461;52.018;21.036;2023-12-22T05:01:10;96709.92;;;3.65;86.28
35507;BME280;36461;52.018;21.036;2023-12-22T05:03:38;96712.35;;;3.65;86.17
35507;BME280;36461;52.018;21.036;2023-12-22T05:06:06;96706.27;;;3.63;86.27
35507;BME280;36461;52.018;21.036;2023-12-22T05:08:34;96713.11;;;3.61;86.27
35507;BME280;36461;52.018;21.036;2023-12-22T05:11:02;96711.58;;;3.58;86.25
35507;BME280;36461;52.018;21.036;2023-12-22T05:13:31;96716.02;;;3.52;86.35
35507;BME280;36461;52.018;21.036;2023-12-22T05:15:58;96717.98;;;3.46;86.26
35507;BME280;36461;52.018;21.036;2023-12-22T05:18:27;96711.16;;;3.42;86.54
35507;BME280;36461;52.018;21.036;2023-12-22T05:20:55;96718.34;;;3.40;86.57
35507;BME280;36461;52.018;21.036;2023-12-22T05:23:23;96720.90;;;3.34;86.67
35507;BME280;36461;52.018;21.036;2023-12-22T05:25:51;96726.13;;;3.30;86.55
35507;BME280;36461;52.018;21.036;2023-12-22T05:28:19;96734.08;;;3.26;86.93
35507;BME280;36461;52.018;21.036;2023-12-22T05:30:47;96734.85;;;3.22;87.04
35507;BME280;36461;52.018;21.036;2023-12-22T05:33:15;96743.09;;;3.17;87.07
35507;BME280;36461;52.018;21.036;2023-12-22T05:35:44;96736.73;;;3.15;87.19
35507;BME280;36461;52.018;21.036;2023-12-22T05:38:12;96735.70;;;3.15;87.24
35507;BME280;36461;52.018;21.036;2023-12-22T05:40:40;96737.86;;;3.17;87.36
35507;BME280;36461;52.018;21.036;2023-12-22T05:43:08;96743.45;;;3.20;87.72
35507;BME280;36461;52.018;21.036;2023-12-22T05:45:36;96759.95;;;3.22;87.69
35507;BME280;36461;52.018;21.036;2023-12-22T05:48:06;96754.08;;;3.19;87.64
35507;BME280;36461;52.018;21.036;2023-12-22T05:50:35;96756.15;;;3.16;87.79
35507;BME280;36461;52.018;21.036;2023-12-22T05:53:03;96757.88;;;3.13;87.91
35507;BME280;36461;52.018;21.036;2023-12-22T05:55:31;96762.89;;;3.12;87.68
35507;BME280;36461;52.018;21.036;2023-12-22T05:58:00;96758.45;;;3.12;88.27
35507;BME280;36461;52.018;21.036;2023-12-22T06:00:28;96757.34;;;3.11;87.79
35507;BME280;36461;52.018;21.036;2023-12-22T06:02:56;96760.26;;;3.08;87.97
35507;BME280;36461;52.018;21.036;2023-12-22T06:05:25;96760.73;;;3.06;87.68
35507;BME280;36461;52.018;21.036;2023-12-22T06:07:53;96766.64;;;3.04;87.77
35507;BME280;36461;52.018;21.036;2023-12-22T06:10:21;96763.14;;;3.02;87.68
35507;BME280;36461;52.018;21.036;2023-12-22T06:12:49;96760.64;;;3.02;87.67
35507;BME280;36461;52.018;21.036;2023-12-22T06:15:17;96754.11;;;2.96;87.31
35507;BME280;36461;52.018;21.036;2023-12-22T06:17:45;96743.20;;;2.93;87.24
35507;BME280;36461;52.018;21.036;2023-12-22T06:20:13;96743.70;;;2.91;87.16
35507;BME280;36461;52.018;21.036;2023-12-22T06:22:41;96745.80;;;2.90;86.66
35507;BME280;36461;52.018;21.036;2023-12-22T06:25:10;96749.04;;;2.87;86.30
35507;BME280;36461;52.018;21.036;2023-12-22T06:27:38;96756.38;;;2.84;86.13
35507;BME280;36461;52.018;21.036;2023-12-22T06:30:07;96765.16;;;2.86;85.88
35507;BME280;36461;52.018;21.036;2023-12-22T06:32:35;96774.55;;;2.92;85.71
35507;BME280;36461;52.018;21.036;2023-12-22T06:35:08;96777.33;;;2.99;85.55
35507;BME280;36461;52.018;21.036;2023-12-22T06:37:42;96778.55;;;3.05;84.49
35507;BME280;36461;52.018;21.036;2023-12-22T06:40:10;96782.08;;;3.12;83.81
35507;BME280;36461;52.018;21.036;2023-12-22T06:42:38;96783.27;;;3.17;83.24
35507;BME280;36461;52.018;21.036;2023-12-22T06:45:07;96788.64;;;3.22;82.71
35507;BME280;36461;52.018;21.036;2023-12-22T06:47:35;96796.29;;;3.26;81.40
35507;BME280;36461;52.018;21.036;2023-12-22T06:50:03;96796.90;;;3.29;80.78
35507;BME280;36461;52.018;21.036;2023-12-22T06:52:32;96799.95;;;3.32;80.32
35507;BME280;36461;52.018;21.036;2023-12-22T06:55:00;96798.23;;;3.33;79.38
35507;BME280;36461;52.018;21.036;2023-12-22T06:57:28;96804.66;;;3.31;79.51
35507;BME280;36461;52.018;21.036;2023-12-22T06:59:56;96806.70;;;3.31;79.43
35507;BME280;36461;52.018;21.036;2023-12-22T07:02:24;96808.40;;;3.31;79.10
35507;BME280;36461;52.018;21.036;2023-12-22T07:05:01;96805.58;;;3.33;79.00
35507;BME280;36461;52.018;21.036;2023-12-22T07:07:36;96806.70;;;3.34;78.42
35507;BME280;36461;52.018;21.036;2023-12-22T07:10:05;96818.98;;;3.35;78.40
35507;BME280;36461;52.018;21.036;2023-12-22T07:12:33;96817.21;;;3.35;77.98
35507;BME280;36461;52.018;21.036;2023-12-22T07:15:01;96819.05;;;3.30;77.20
35507;BME280;36461;52.018;21.036;2023-12-22T07:17:28;96816.77;;;3.26;76.37
35507;BME280;36461;52.018;21.036;2023-12-22T07:19:57;96820.36;;;3.26;77.73
35507;BME280;36461;52.018;21.036;2023-12-22T07:22:26;96827.58;;;3.19;78.25
35507;BME280;36461;52.018;21.036;2023-12-22T07:24:54;96838.15;;;3.14;77.53
35507;BME280;36461;52.018;21.036;2023-12-22T07:27:25;96832.57;;;3.07;77.86
35507;BME280;36461;52.018;21.036;2023-12-22T07:29:55;96839.39;;;3.01;77.59
35507;BME280;36461;52.018;21.036;2023-12-22T07:32:22;96844.05;;;2.95;77.20
35507;BME280;36461;52.018;21.036;2023-12-22T07:34:50;96850.83;;;2.90;77.01
35507;BME280;36461;52.018;21.036;2023-12-22T07:37:19;96848.52;;;2.89;75.16
35507;BME280;36461;52.018;21.036;2023-12-22T07:39:49;96860.04;;;2.90;75.85
35507;BME280;36461;52.018;21.036;2023-12-22T07:42:17;96856.67;;;2.92;75.22
35507;BME280;36461;52.018;21.036;2023-12-22T07:44:45;96863.05;;;2.94;75.53
35507;BME280;36461;52.018;21.036;2023-12-22T07:47:13;96872.80;;;2.91;75.51
35507;BME280;36461;52.018;21.036;2023-12-22T07:49:42;96874.89;;;2.87;75.55
35507;BME280;36461;52.018;21.036;2023-12-22T07:52:10;96880.00;;;2.81;74.43
35507;BME280;36461;52.018;21.036;2023-12-22T07:54:38;96875.40;;;2.78;74.76
35507;BME280;36461;52.018;21.036;2023-12-22T07:57:06;96881.08;;;2.74;74.40
35507;BME280;36461;52.018;21.036;2023-12-22T07:59:34;96879.16;;;2.69;74.32
35507;BME280;36461;52.018;21.036;2023-12-22T08:02:03;96882.71;;;2.64;73.43
35507;BME280;36461;52.018;21.036;2023-12-22T08:04:31;96881.11;;;2.59;73.43
35507;BME280;36461;52.018;21.036;2023-12-22T08:07:00;96885.36;;;2.56;73.06
35507;BME280;36461;52.018;21.036;2023-12-22T08:09:27;96888.60;;;2.53;73.60
35507;BME280;36461;52.018;21.036;2023-12-22T08:11:55;96880.70;;;2.50;73.35
35507;BME280;36461;52.018;21.036;2023-12-22T08:14:25;96888.15;;;2.49;72.95
35507;BME280;36461;52.018;21.036;2023-12-22T08:16:52;96889.42;;;2.47;72.88
35507;BME280;36461;52.018;21.036;2023-12-22T08:19:20;96889.59;;;2.47;72.99
35507;BME280;36461;52.018;21.036;2023-12-22T08:21:54;96890.80;;;2.47;72.71
35507;BME280;36461;52.018;21.036;2023-12-22T08:24:24;96895.02;;;2.45;73.40
35507;BME280;36461;52.018;21.036;2023-12-22T08:26:52;96898.30;;;2.44;73.44
35507;BME280;36461;52.018;21.036;2023-12-22T08:29:20;96899.34;;;2.41;73.86
35507;BME280;36461;52.018;21.036;2023-12-22T08:31:48;96899.41;;;2.39;74.10
35507;BME280;36461;52.018;21.036;2023-12-22T08:34:17;96911.70;;;2.40;74.40
35507;BME280;36461;52.018;21.036;2023-12-22T08:36:45;96906.19;;;2.40;74.53
35507;BME280;36461;52.018;21.036;2023-12-22T08:39:14;96909.94;;;2.41;74.61
35507;BME280;36461;52.018;21.036;2023-12-22T08:41:42;96907.16;;;2.41;75.00
35507;BME280;36461;52.018;21.036;2023-12-22T08:44:11;96911.36;;;2.42;74.97
35507;BME280;36461;52.018;21.036;2023-12-22T08:46:42;96916.34;;;2.42;74.81
35507;BME280;36461;52.018;21.036;2023-12-22T08:49:11;96912.66;;;2.41;75.39
35507;BME280;36461;52.018;21.036;2023-12-22T08:51:39;96915.67;;;2.39;75.95
35507;BME280;36461;52.018;21.036;2023-12-22T08:54:07;96917.55;;;2.38;75.79
35507;BME280;36461;52.018;21.036;2023-12-22T08:56:35;96919.61;;;2.38;75.80
35507;BME280;36461;52.018;21.036;2023-12-22T08:59:03;96918.88;;;2.39;76.05
35507;BME280;36461;52.018;21.036;2023-12-22T09:01:31;96920.15;;;2.41;76.20
35507;BME280;36461;52.018;21.036;2023-12-22T09:04:00;96909.41;;;2.44;76.21
35507;BME280;36461;52.018;21.036;2023-12-22T09:06:29;96909.98;;;2.46;76.21
35507;BME280;36461;52.018;21.036;2023-12-22T09:08:57;96909.22;;;2.47;76.03
35507;BME280;36461;52.018;21.036;2023-12-22T09:11:25;96907.59;;;2.48;76.16
35507;BME280;36461;52.018;21.036;2023-12-22T09:13:53;96900.99;;;2.51;76.52
35507;BME280;36461;52.018;21.036;2023-12-22T09:16:22;96898.01;;;2.53;76.20
35507;BME280;36461;52.018;21.036;2023-12-22T09:18:51;96895.42;;;2.53;75.83
35507;BME280;36461;52.018;21.036;2023-12-22T09:21:19;96897.55;;;2.55;75.97
35507;BME280;36461;52.018;21.036;2023-12-22T09:23:47;96891.30;;;2.57;76.10
35507;BME280;36461;52.018;21.036;2023-12-22T09:26:16;96893.23;;;2.59;75.66
35507;BME280;36461;52.018;21.036;2023-12-22T09:28:44;96887.01;;;2.63;75.66
35507;BME280;36461;52.018;21.036;2023-12-22T09:31:13;96879.51;;;2.66;75.17
35507;BME280;36461;52.018;21.036;2023-12-22T09:33:42;96874.23;;;2.72;74.95
35507;BME280;36461;52.018;21.036;2023-12-22T09:36:10;96869.85;;;2.77;75.01
35507;BME280;36461;52.018;21.036;2023-12-22T09:38:40;96872.19;;;2.81;74.57
35507;BME280;36461;52.018;21.036;2023-12-22T09:41:09;96872.95;;;2.85;75.06
35507;BME280;36461;52.018;21.036;2023-12-22T09:43:39;96861.90;;;2.88;75.04
35507;BME280;36461;52.018;21.036;2023-12-22T09:46:08;96862.87;;;2.91;74.78
35507;BME280;36461;52.018;21.036;2023-12-22T09:48:38;96854.30;;;2.95;74.09
35507;BME280;36461;52.018;21.036;2023-12-22T09:51:09;96849.40;;;2.97;74.15
35507;BME280;36461;52.018;21.036;2023-12-22T09:53:39;96840.12;;;3.00;73.52
35507;BME280;36461;52.018;21.036;2023-12-22T09:56:09;96844.24;;;3.06;74.01
35507;BME280;36461;52.018;21.036;2023-12-22T09:58:37;96841.39;;;3.14;74.22
35507;BME280;36461;52.018;21.036;2023-12-22T10:01:07;96840.85;;;3.26;74.29
35507;BME280;36461;52.018;21.036;2023-12-22T10:03:37;96832.86;;;3.42;73.91
35507;BME280;36461;52.018;21.036;2023-12-22T10:06:05;96831.86;;;3.62;73.19
35507;BME280;36461;52.018;21.036;2023-12-22T10:08:35;96823.89;;;3.83;72.43
35507;BME280;36461;52.018;21.036;2023-12-22T10:11:03;96821.88;;;4.05;72.80
35507;BME280;36461;52.018;21.036;2023-12-22T10:13:33;96823.00;;;4.28;72.60
35507;BME280;36461;52.018;21.036;2023-12-22T10:16:06;96811.94;;;4.42;71.82
35507;BME280;36461;52.018;21.036;2023-12-22T10:18:34;96808.42;;;4.52;71.24
35507;BME280;36461;52.018;21.036;2023-12-22T10:21:02;96815.35;;;4.62;71.45
35507;BME280;36461;52.018;21.036;2023-12-22T10:23:30;96808.63;;;4.65;70.83
35507;BME280;36461;52.018;21.036;2023-12-22T10:25:59;96808.95;;;4.62;70.79
35507;BME280;36461;52.018;21.036;2023-12-22T10:28:28;96817.73;;;4.53;71.16
35507;BME280;36461;52.018;21.036;2023-12-22T10:30:56;96813.42;;;4.46;70.99
35507;BME280;36461;52.018;21.036;2023-12-22T10:33:29;96819.63;;;4.35;71.42
35507;BME280;36461;52.018;21.036;2023-12-22T10:36:00;96843.71;;;4.25;70.73
35507;BME280;36461;52.018;21.036;2023-12-22T10:38:33;96865.98;;;4.14;71.20
35507;BME280;36461;52.018;21.036;2023-12-22T10:41:05;96904.51;;;4.05;71.01
35507;BME280;36461;52.018;21.036;2023-12-22T10:43:40;96936.37;;;3.64;78.91
35507;BME280;36461;52.018;21.036;2023-12-22T10:46:09;96948.89;;;2.86;88.62
35507;BME280;36461;52.018;21.036;2023-12-22T10:48:40;96965.05;;;2.02;92.96
35507;BME280;36461;52.018;21.036;2023-12-22T10:51:09;96955.95;;;1.50;95.49
35507;BME280;36461;52.018;21.036;2023-12-22T10:53:42;96953.40;;;1.19;97.42
35507;BME280;36461;52.018;21.036;2023-12-22T10:56:11;96954.72;;;0.81;100.00
35507;BME280;36461;52.018;21.036;2023-12-22T10:58:42;96934.98;;;0.56;100.00
35507;BME280;36461;52.018;21.036;2023-12-22T11:01:11;96916.11;;;0.45;100.00
35507;BME280;36461;52.018;21.036;2023-12-22T11:03:44;96902.82;;;0.52;100.00
35507;BME280;36461;52.018;21.036;2023-12-22T11:06:15;96898.14;;;0.58;100.00
35507;BME280;36461;52.018;21.036;2023-12-22T11:08:44;96887.59;;;0.65;100.00
35507;BME280;36461;52.018;21.036;2023-12-22T11:11:33;96883.08;;;0.77;100.00
35507;BME280;36461;52.018;21.036;2023-12-22T11:14:03;96870.24;;;0.89;100.00
35507;BME280;36461;52.018;21.036;2023-12-22T11:16:34;96852.38;;;0.93;100.00
35507;BME280;36461;52.018;21.036;2023-12-22T11:19:03;96841.02;;;0.95;100.00
35507;BME280;36461;52.018;21.036;2023-12-22T11:21:31;96836.48;;;0.97;100.00
35507;BME280;36461;52.018;21.036;2023-12-22T11:24:01;96839.73;;;1.00;100.00
35507;BME280;36461;52.018;21.036;2023-12-22T11:26:31;96841.45;;;1.03;100.00
35507;BME280;36461;52.018;21.036;2023-12-22T11:29:02;96845.64;;;1.05;100.00
35507;BME280;36461;52.018;21.036;2023-12-22T11:31:31;96845.72;;;0.99;100.00
35507;BME280;36461;52.018;21.036;2023-12-22T11:34:01;96842.70;;;0.88;100.00
35507;BME280;36461;52.018;21.036;2023-12-22T11:36:39;96848.62;;;0.82;100.00
35507;BME280;36461;52.018;21.036;2023-12-22T11:39:08;96841.39;;;0.84;100.00
35507;BME280;36461;52.018;21.036;2023-12-22T11:41:38;96840.67;;;0.92;100.00
35507;BME280;36461;52.018;21.036;2023-12-22T11:44:08;96835.20;;;0.92;100.00
35507;BME280;36461;52.018;21.036;2023-12-22T11:46:37;96837.59;;;0.92;100.00
35507;BME280;36461;52.018;21.036;2023-12-22T11:49:06;96835.54;;;0.89;100.00
35507;BME280;36461;52.018;21.036;2023-12-22T11:51:35;96826.48;;;0.86;100.00
35507;BME280;36461;52.018;21.036;2023-12-22T11:54:03;96824.23;;;0.79;100.00
35507;BME280;36461;52.018;21.036;2023-12-22T11:56:34;96831.12;;;0.75;100.00
35507;BME280;36461;52.018;21.036;2023-12-22T11:59:02;96826.22;;;0.71;100.00
35507;BME280;36461;52.018;21.036;2023-12-22T12:01:30;96827.73;;;0.71;100.00
35507;BME280;36461;52.018;21.036;2023-12-22T12:04:03;96833.04;;;0.77;100.00
35507;BME280;36461;52.018;21.036;2023-12-22T12:06:34;96829.69;;;0.86;100.00
35507;BME280;36461;52.018;21.036;2023-12-22T12:09:06;96828.95;;;1.01;100.00
35507;BME280;36461;52.018;21.036;2023-12-22T12:14:32;96819.77;;;1.14;100.00
35507;BME280;36461;52.018;21.036;2023-12-22T12:17:08;96816.89;;;1.10;100.00
35507;BME280;36461;52.018;21.036;2023-12-22T12:19:38;96820.11;;;1.04;100.00
35507;BME280;36461;52.018;21.036;2023-12-22T12:22:06;96817.20;;;0.98;100.00
35507;BME280;36461;52.018;21.036;2023-12-22T12:24:36;96812.38;;;0.96;100.00
35507;BME280;36461;52.018;21.036;2023-12-22T12:27:05;96807.85;;;0.98;100.00
35507;BME280;36461;52.018;21.036;2023-12-22T12:29:33;96804.80;;;1.04;100.00
35507;BME280;36461;52.018;21.036;2023-12-22T12:32:05;96802.44;;;1.14;100.00
35507;BME280;36461;52.018;21.036;2023-12-22T12:34:34;96800.61;;;1.22;100.00
35507;BME280;36461;52.018;21.036;2023-12-22T12:37:03;96796.45;;;1.30;100.00
35507;BME280;36461;52.018;21.036;2023-12-22T12:39:34;96794.09;;;1.33;100.00
35507;BME280;36461;52.018;21.036;2023-12-22T12:42:06;96795.16;;;1.36;100.00
35507;BME280;36461;52.018;21.036;2023-12-22T12:44:37;96793.33;;;1.41;100.00
35507;BME280;36461;52.018;21.036;2023-12-22T12:47:13;96781.46;;;1.43;100.00
35507;BME280;36461;52.018;21.036;2023-12-22T12:49:42;96782.25;;;1.48;100.00
35507;BME280;36461;52.018;21.036;2023-12-22T12:52:14;96788.36;;;1.51;100.00
35507;BME280;36461;52.018;21.036;2023-12-22T12:54:43;96788.88;;;1.55;100.00
35507;BME280;36461;52.018;21.036;2023-12-22T12:57:17;96786.88;;;1.57;100.00
35507;BME280;36461;52.018;21.036;2023-12-22T12:59:47;96779.94;;;1.59;100.00
35507;BME280;36461;52.018;21.036;2023-12-22T13:02:17;96781.27;;;1.60;100.00
35507;BME280;36461;52.018;21.036;2023-12-22T13:04:46;96779.94;;;1.56;100.00
35507;BME280;36461;52.018;21.036;2023-12-22T13:07:23;96781.25;;;1.50;100.00
35507;BME280;36461;52.018;21.036;2023-12-22T13:09:51;96778.98;;;1.52;100.00
35507;BME280;36461;52.018;21.036;2023-12-22T13:12:22;96781.11;;;1.50;100.00